createdAt,value
2018-07-07T00:00:14.514Z,0.70
2018-07-07T00:05:18.432Z,0.80
2018-07-07T00:10:21.402Z,0.90
2018-07-07T00:15:24.478Z,0.80
2018-07-07T00:20:27.593Z,0.72
2018-07-07T00:25:30.523Z,0.85
2018-07-07T00:30:33.599Z,0.88
2018-07-07T00:35:37.136Z,0.70
2018-07-07T00:40:40.111Z,0.70
2018-07-07T00:45:42.952Z,0.62
2018-07-07T00:50:45.920Z,0.62
2018-07-07T00:55:49.049Z,0.80
2018-07-07T01:00:53.945Z,0.70
2018-07-07T01:05:56.864Z,0.67
2018-07-07T01:11:00.684Z,0.60
2018-07-07T01:16:04.925Z,0.60
2018-07-07T01:21:08.895Z,0.70
2018-07-07T01:26:11.842Z,0.60
2018-07-07T01:31:14.927Z,0.57
2018-07-07T01:36:18.553Z,0.50
2018-07-07T01:41:21.430Z,0.83
2018-07-07T01:46:24.397Z,0.40
2018-07-07T01:51:27.088Z,0.60
2018-07-07T01:56:30.060Z,0.70
2018-07-07T02:01:33.040Z,0.60
2018-07-07T02:06:36.109Z,0.70
2018-07-07T02:11:40.821Z,0.90
2018-07-07T02:16:43.880Z,0.47
2018-07-07T02:21:48.407Z,0.60
2018-07-07T02:26:51.497Z,0.80
2018-07-07T02:31:54.358Z,0.87
2018-07-07T02:36:57.773Z,0.80
2018-07-07T02:42:01.567Z,0.73
2018-07-07T02:47:05.875Z,0.50
2018-07-07T02:52:09.638Z,0.93
2018-07-07T02:57:12.639Z,0.60
2018-07-07T03:02:15.679Z,0.83
2018-07-07T03:07:18.793Z,0.70
2018-07-07T03:12:21.577Z,0.93
2018-07-07T03:17:24.341Z,1.03
2018-07-07T03:22:27.291Z,0.97
2018-07-07T03:27:30.570Z,1.10
2018-07-07T03:32:33.627Z,0.93
2018-07-07T03:37:38.852Z,1.07
2018-07-07T03:42:42.062Z,1.20
2018-07-07T03:47:45.724Z,1.20
2018-07-07T03:52:50.881Z,0.90
2018-07-07T03:57:53.634Z,0.90
2018-07-07T04:02:58.104Z,1.00
2018-07-07T04:08:02.999Z,1.00
2018-07-07T04:13:06.261Z,1.00
2018-07-07T04:18:09.528Z,1.20
2018-07-07T04:23:12.226Z,1.27
2018-07-07T04:28:15.870Z,1.77
2018-07-07T04:33:19.605Z,1.40
2018-07-07T04:38:23.544Z,1.70
2018-07-07T04:43:27.384Z,1.10
2018-07-07T04:48:30.772Z,1.20
2018-07-07T04:53:33.999Z,1.20
2018-07-07T04:58:37.010Z,1.23
2018-07-07T05:03:40.020Z,1.60
2018-07-07T05:08:42.892Z,1.10
2018-07-07T05:13:46.613Z,1.27
2018-07-07T05:18:49.600Z,1.70
2018-07-07T05:23:52.429Z,1.27
2018-07-07T05:28:55.405Z,1.50
2018-07-07T05:33:58.275Z,1.30
2018-07-07T05:39:01.086Z,1.33
2018-07-07T05:44:04.637Z,1.83
2018-07-07T05:49:07.765Z,1.50
2018-07-07T05:54:11.405Z,1.80
2018-07-07T05:59:14.277Z,1.63
2018-07-07T06:04:17.309Z,1.40
2018-07-07T06:09:20.137Z,1.50
2018-07-07T06:14:22.771Z,1.50
2018-07-07T06:19:26.391Z,1.17
2018-07-07T06:24:29.922Z,1.27
2018-07-07T06:29:32.996Z,1.50
2018-07-07T06:34:35.612Z,1.37
2018-07-07T06:39:38.433Z,1.65
2018-07-07T06:44:41.256Z,1.30
2018-07-07T06:49:43.853Z,1.47
2018-07-07T06:54:46.301Z,1.50
2018-07-07T06:59:48.886Z,1.15
2018-07-07T07:04:51.523Z,1.35
2018-07-07T07:09:53.972Z,1.20
2018-07-07T07:14:56.523Z,1.15
2018-07-07T07:19:58.976Z,1.27
2018-07-07T07:25:06.104Z,2.12
2018-07-07T07:30:09.368Z,1.22
2018-07-07T07:35:11.927Z,1.40
2018-07-07T07:40:14.721Z,1.53
2018-07-07T07:45:17.146Z,1.30
2018-07-07T07:50:19.608Z,1.10
2018-07-07T07:55:22.184Z,1.30
2018-07-07T08:00:24.904Z,1.05
2018-07-07T08:05:27.373Z,1.00
2018-07-07T08:10:29.966Z,0.85
2018-07-07T08:15:32.470Z,0.98
2018-07-07T08:20:34.971Z,1.47
2018-07-07T08:25:37.502Z,1.15
2018-07-07T08:30:39.962Z,1.02
2018-07-07T08:35:42.494Z,1.32
2018-07-07T08:40:45.437Z,1.30
2018-07-07T08:45:47.968Z,1.00
2018-07-07T08:50:50.952Z,1.10
2018-07-07T08:55:54.001Z,1.22
2018-07-07T09:00:56.492Z,1.10
2018-07-07T09:05:59.357Z,0.90
2018-07-07T09:11:02.668Z,1.12
2018-07-07T09:16:05.449Z,0.93
2018-07-07T09:21:08.537Z,0.95
2018-07-07T09:26:12.128Z,0.70
2018-07-07T09:31:14.684Z,0.78
2018-07-07T09:36:17.418Z,1.00
2018-07-07T09:41:20.395Z,1.02
2018-07-07T09:46:24.945Z,1.00
2018-07-07T09:51:27.437Z,1.10
2018-07-07T09:56:29.881Z,1.27
2018-07-07T10:01:32.602Z,1.15
2018-07-07T10:06:35.019Z,0.70
2018-07-07T10:11:37.680Z,1.17
2018-07-07T10:16:40.101Z,1.22
2018-07-07T10:21:42.868Z,1.10
2018-07-07T10:26:45.909Z,1.00
2018-07-07T10:31:48.893Z,0.90
2018-07-07T10:36:51.703Z,0.90
2018-07-07T10:41:54.812Z,0.90
2018-07-07T10:46:57.299Z,1.30
2018-07-07T10:52:00.059Z,1.02
2018-07-07T10:57:02.489Z,1.30
2018-07-07T11:02:05.687Z,0.82
2018-07-07T11:07:08.708Z,0.98
2018-07-07T11:12:12.776Z,1.12
2018-07-07T11:17:16.715Z,1.20
2018-07-07T11:22:19.261Z,1.20
2018-07-07T11:27:22.008Z,1.17
2018-07-07T11:32:24.649Z,1.12
2018-07-07T11:37:27.976Z,0.90
2018-07-07T11:42:31.382Z,1.12
2018-07-07T11:47:34.139Z,0.85
2018-07-07T11:52:36.984Z,0.88
2018-07-07T11:57:40.926Z,1.65
2018-07-07T12:02:43.894Z,0.80
2018-07-07T12:07:46.556Z,1.07
2018-07-07T12:12:48.959Z,1.30
2018-07-07T12:17:51.559Z,1.35
2018-07-07T12:22:54.411Z,0.82
2018-07-07T12:27:57.235Z,1.02
2018-07-07T12:32:59.959Z,0.70
2018-07-07T12:38:02.778Z,0.95
2018-07-07T12:43:05.875Z,0.90
2018-07-07T12:48:08.519Z,0.90
2018-07-07T12:53:11.068Z,0.90
2018-07-07T12:58:14.545Z,0.75
2018-07-07T13:03:17.027Z,0.88
2018-07-07T13:08:19.830Z,0.90
2018-07-07T13:13:23.897Z,0.93
2018-07-07T13:18:26.316Z,0.95
2018-07-07T13:23:28.769Z,1.00
2018-07-07T13:28:31.441Z,1.00
2018-07-07T13:33:34.133Z,0.80
2018-07-07T13:38:43.283Z,0.88
2018-07-07T13:43:49.092Z,0.80
2018-07-07T13:49:00.990Z,1.00
2018-07-07T13:54:03.553Z,1.30
2018-07-07T13:59:06.416Z,1.05
2018-07-07T14:04:09.995Z,0.98
2018-07-07T14:09:12.474Z,1.10
2018-07-07T14:14:14.921Z,1.27
2018-07-07T14:19:19.541Z,0.90
2018-07-07T14:24:23.044Z,1.22
2018-07-07T14:29:25.580Z,1.47
2018-07-07T14:34:28.413Z,1.12
2018-07-07T14:39:35.389Z,1.30
2018-07-07T14:44:38.036Z,1.12
2018-07-07T14:49:40.457Z,1.42
2018-07-07T14:54:42.892Z,1.10
2018-07-07T14:59:45.780Z,1.25
2018-07-07T15:04:48.497Z,1.32
2018-07-07T15:09:51.339Z,1.40
2018-07-07T15:14:53.911Z,1.52
2018-07-07T15:19:56.402Z,1.30
2018-07-07T15:24:58.922Z,1.32
2018-07-07T15:30:06.686Z,1.42
2018-07-07T15:35:09.224Z,1.22
2018-07-07T15:40:11.742Z,1.33
2018-07-07T15:45:14.973Z,1.33
2018-07-07T15:50:17.485Z,1.20
2018-07-07T15:55:20.093Z,1.40
2018-07-07T16:00:22.572Z,1.13
2018-07-07T16:05:25.215Z,1.42
2018-07-07T16:10:28.467Z,1.15
2018-07-07T16:15:31.121Z,1.37
2018-07-07T16:20:33.615Z,1.27
2018-07-07T16:25:36.244Z,1.70
2018-07-07T16:30:38.660Z,1.40
2018-07-07T16:35:41.117Z,1.22
2018-07-07T16:40:43.577Z,1.50
2018-07-07T16:45:46.246Z,1.45
2018-07-07T16:50:48.669Z,1.10
2018-07-07T16:55:51.457Z,1.70
2018-07-07T17:00:54.049Z,0.80
2018-07-07T17:05:58.017Z,1.17
2018-07-07T17:11:00.957Z,1.05
2018-07-07T17:16:04.460Z,1.27
2018-07-07T17:21:07.359Z,0.90
2018-07-07T17:26:10.586Z,1.32
2018-07-07T17:31:13.303Z,1.80
2018-07-07T17:36:17.179Z,1.10
2018-07-07T17:41:20.214Z,1.37
2018-07-07T17:46:22.728Z,1.07
2018-07-07T17:51:25.393Z,1.20
2018-07-07T17:56:28.336Z,1.05
2018-07-07T18:01:31.190Z,1.60
2018-07-07T18:06:34.343Z,1.40
2018-07-07T18:11:37.102Z,1.52
2018-07-07T18:16:39.784Z,1.77
2018-07-07T18:21:42.634Z,2.50
2018-07-07T18:26:45.735Z,1.20
2018-07-07T18:31:48.632Z,1.62
2018-07-07T18:36:51.693Z,1.10
2018-07-07T18:41:54.597Z,1.20
2018-07-07T18:46:57.139Z,1.05
2018-07-07T18:52:00.015Z,1.27
2018-07-07T18:57:02.521Z,1.40
2018-07-07T19:02:04.973Z,1.05
2018-07-07T19:07:08.629Z,1.55
2018-07-07T19:12:11.281Z,1.60
2018-07-07T19:17:14.419Z,1.47
2018-07-07T19:24:29.834Z,1.80
2018-07-07T19:29:32.610Z,1.45
2018-07-07T19:34:40.851Z,1.60
2018-07-07T19:39:44.317Z,1.47
2018-07-07T19:44:47.723Z,1.10
2018-07-07T19:49:50.560Z,1.22
2018-07-07T19:54:53.000Z,1.50
2018-07-07T19:59:55.816Z,1.60
2018-07-07T20:04:58.819Z,1.50
2018-07-07T20:10:01.683Z,2.17
2018-07-07T20:15:04.583Z,2.98
2018-07-07T20:20:43.163Z,2.17
2018-07-07T20:25:51.036Z,1.98
2018-07-07T20:30:57.376Z,1.92
2018-07-07T20:36:00.156Z,1.77
2018-07-07T20:41:04.033Z,1.55
2018-07-07T20:46:06.560Z,1.77
2018-07-07T20:51:09.136Z,1.80
2018-07-07T20:56:11.840Z,1.60
2018-07-07T21:01:14.270Z,2.05
2018-07-07T21:06:16.815Z,1.75
2018-07-07T21:11:19.919Z,1.80
2018-07-07T21:16:22.684Z,1.70
2018-07-07T21:21:25.657Z,1.70
2018-07-07T21:26:28.240Z,1.70
2018-07-07T21:31:31.285Z,1.65
2018-07-07T21:36:34.621Z,1.37
2018-07-07T21:41:37.155Z,1.62
2018-07-07T21:46:40.069Z,1.55
2018-07-07T21:51:42.589Z,1.60
2018-07-07T21:56:47.284Z,1.45
2018-07-07T22:01:56.457Z,1.40
2018-07-07T22:07:04.526Z,1.30
2018-07-07T22:12:07.003Z,1.50
2018-07-07T22:17:09.526Z,1.42
2018-07-07T22:22:12.250Z,1.17
2018-07-07T22:27:16.014Z,1.57
2018-07-07T22:32:19.484Z,1.30
2018-07-07T22:37:22.670Z,1.20
2018-07-07T22:42:25.075Z,1.75
2018-07-07T22:47:27.618Z,1.85
2018-07-07T22:52:30.840Z,1.80
2018-07-07T22:57:33.466Z,1.80
2018-07-07T23:02:36.335Z,1.67
2018-07-07T23:07:39.654Z,1.60
2018-07-07T23:12:43.112Z,1.30
2018-07-07T23:17:46.045Z,1.10
2018-07-07T23:22:51.088Z,1.42
2018-07-07T23:27:53.749Z,1.40
2018-07-07T23:32:56.230Z,1.27
2018-07-07T23:37:58.708Z,1.20
2018-07-07T23:43:01.296Z,1.20
2018-07-07T23:48:04.201Z,1.25
2018-07-07T23:53:07.736Z,1.22
2018-07-07T23:58:11.411Z,1.10
